Time;durP1;ratioP1;P1;durP2;ratioP2;P2;SDS_P1;SDS_P2;PMS_P1;PMS_P2;Temp;Humidity;BMP_temperature;BMP_pressure;BME280_temperature;BME280_humidity;BME280_pressure;Samples;Min_cycle;Max_cycle;Signal;HPM_P1;HPM_P2
2022/08/06 00:00:45;;;;;;;26.10;18.52;;;;;;;;;;1725074;81;21043;-70
2022/08/06 00:03:12;;;;;;;22.25;18.87;;;;;;;;;;1727132;82;21047;-70
2022/08/06 00:05:38;;;;;;;22.48;19.10;;;;;;;;;;1728959;82;21086;-70
2022/08/06 00:08:05;;;;;;;24.90;19.52;;;;;;;;;;1727560;82;21051;-71
2022/08/06 00:10:32;;;;;;;24.02;19.65;;;;;;;;;;1743936;82;21127;-70
2022/08/06 00:12:59;;;;;;;26.55;18.92;;;;;;;;;;1734882;82;21588;-70
2022/08/06 00:15:25;;;;;;;21.70;18.73;;;;;;;;;;1721612;82;22168;-70
2022/08/06 00:17:52;;;;;;;21.55;18.48;;;;;;;;;;1733023;82;21020;-70
2022/08/06 00:20:19;;;;;;;20.80;17.95;;;;;;;;;;1722770;82;21016;-70
2022/08/06 00:22:45;;;;;;;21.12;18.87;;;;;;;;;;1741829;81;21571;-70
2022/08/06 00:25:12;;;;;;;27.75;17.90;;;;;;;;;;1728757;82;21005;-71
2022/08/06 00:27:38;;;;;;;20.35;17.60;;;;;;;;;;1727696;82;21056;-70
2022/08/06 00:30:06;;;;;;;21.93;17.17;;;;;;;;;;1731114;82;21039;-70
2022/08/06 00:32:33;;;;;;;23.20;17.75;;;;;;;;;;1718855;82;21030;-70
2022/08/06 00:35:00;;;;;;;20.75;17.55;;;;;;;;;;1722281;81;21180;-70
2022/08/06 00:37:28;;;;;;;21.50;17.17;;;;;;;;;;1715106;82;21059;-70
2022/08/06 00:39:55;;;;;;;20.65;17.20;;;;;;;;;;1719966;82;21036;-70
2022/08/06 00:42:21;;;;;;;21.57;16.50;;;;;;;;;;1721714;82;21083;-70
2022/08/06 00:44:48;;;;;;;21.37;17.82;;;;;;;;;;1735503;82;21520;-70
2022/08/06 00:47:15;;;;;;;20.32;16.32;;;;;;;;;;1733684;82;21067;-70
2022/08/06 00:49:41;;;;;;;18.73;16.75;;;;;;;;;;1733529;82;21465;-70
2022/08/06 00:52:08;;;;;;;18.60;16.30;;;;;;;;;;1741859;82;21550;-70
2022/08/06 00:54:35;;;;;;;18.45;16.37;;;;;;;;;;1733845;82;21055;-70
2022/08/06 00:57:02;;;;;;;18.73;16.35;;;;;;;;;;1730395;81;21083;-70
2022/08/06 00:59:29;;;;;;;23.92;17.57;;;;;;;;;;1743597;81;21153;-70
2022/08/06 01:01:55;;;;;;;20.50;17.52;;;;;;;;;;1744245;81;21019;-70
2022/08/06 01:04:22;;;;;;;21.07;17.45;;;;;;;;;;1746076;80;21669;-70
2022/08/06 01:06:48;;;;;;;23.90;18.00;;;;;;;;;;1746073;81;21067;-69
2022/08/06 01:09:15;;;;;;;20.48;18.25;;;;;;;;;;1744258;81;21043;-70
2022/08/06 01:11:43;;;;;;;23.20;18.35;;;;;;;;;;1741910;81;21550;-70
2022/08/06 01:14:10;;;;;;;23.55;18.42;;;;;;;;;;1745540;81;21043;-70
2022/08/06 01:16:41;;;;;;;24.07;19.37;;;;;;;;;;1743702;82;21027;-70
2022/08/06 01:19:28;;;;;;;24.30;18.90;;;;;;;;;;1745765;81;21031;-70
2022/08/06 01:21:56;;;;;;;22.52;20.23;;;;;;;;;;1744409;81;21527;-70
2022/08/06 01:24:41;;;;;;;24.23;21.73;;;;;;;;;;1750108;81;21059;-70
2022/08/06 01:27:21;;;;;;;26.97;21.62;;;;;;;;;;1744561;81;21047;-70
2022/08/06 01:29:49;;;;;;;23.73;21.02;;;;;;;;;;1742826;81;21093;-70
2022/08/06 01:32:18;;;;;;;23.57;19.65;;;;;;;;;;1746669;81;21484;-70
2022/08/06 01:34:49;;;;;;;26.33;21.00;;;;;;;;;;1745775;80;21074;-70
2022/08/06 01:37:32;;;;;;;25.88;19.35;;;;;;;;;;1743890;81;21035;-70
2022/08/06 01:40:03;;;;;;;27.00;19.48;;;;;;;;;;1745479;81;21070;-70
2022/08/06 01:42:30;;;;;;;24.47;19.73;;;;;;;;;;1744197;81;21665;-70
2022/08/06 01:45:00;;;;;;;20.45;18.25;;;;;;;;;;1745435;82;21042;-70
2022/08/06 01:47:29;;;;;;;22.82;18.42;;;;;;;;;;1745530;81;21102;-70
2022/08/06 01:49:57;;;;;;;22.87;18.42;;;;;;;;;;1746747;82;21011;-70
2022/08/06 01:52:24;;;;;;;21.15;18.12;;;;;;;;;;1745759;82;21551;-69
2022/08/06 01:54:52;;;;;;;20.65;17.87;;;;;;;;;;1745797;81;21067;-70
2022/08/06 01:57:20;;;;;;;20.32;17.42;;;;;;;;;;1746923;82;21625;-70
2022/08/06 01:59:48;;;;;;;21.33;18.17;;;;;;;;;;1746285;82;21058;-69
2022/08/06 02:02:17;;;;;;;26.65;18.07;;;;;;;;;;1746893;81;21035;-70
2022/08/06 02:04:45;;;;;;;23.50;18.98;;;;;;;;;;1746930;82;21136;-69
2022/08/06 02:07:13;;;;;;;20.68;17.87;;;;;;;;;;1744152;82;21094;-70
2022/08/06 02:09:41;;;;;;;23.05;16.97;;;;;;;;;;1746549;81;20996;-69
2022/08/06 02:12:11;;;;;;;20.05;17.95;;;;;;;;;;1745996;81;21145;-70
2022/08/06 02:14:40;;;;;;;18.90;16.35;;;;;;;;;;1745711;81;21551;-70
2022/08/06 02:17:07;;;;;;;19.60;16.87;;;;;;;;;;1746946;81;21058;-70
2022/08/06 02:19:34;;;;;;;18.98;15.85;;;;;;;;;;1745050;82;21023;-70
2022/08/06 02:22:03;;;;;;;19.20;15.95;;;;;;;;;;1747095;81;21672;-70
2022/08/06 02:24:30;;;;;;;20.43;16.10;;;;;;;;;;1745571;81;21161;-70
2022/08/06 02:26:58;;;;;;;17.10;15.18;;;;;;;;;;1745793;81;21035;-70
2022/08/06 02:29:25;;;;;;;19.55;16.87;;;;;;;;;;1746794;81;21022;-70
2022/08/06 02:31:53;;;;;;;19.92;17.75;;;;;;;;;;1746076;81;21031;-70
2022/08/06 02:34:20;;;;;;;21.27;16.93;;;;;;;;;;1746032;81;21075;-70
2022/08/06 02:36:48;;;;;;;19.23;16.70;;;;;;;;;;1744475;80;21066;-70
2022/08/06 02:39:32;;;;;;;18.75;16.45;;;;;;;;;;1743367;81;21121;-70
2022/08/06 02:42:06;;;;;;;19.67;16.63;;;;;;;;;;1745313;81;21047;-70
2022/08/06 02:44:46;;;;;;;19.20;15.68;;;;;;;;;;1717585;81;21284;-70
2022/08/06 02:47:15;;;;;;;17.55;15.53;;;;;;;;;;1723053;82;21079;-71
2022/08/06 02:49:43;;;;;;;16.45;14.30;;;;;;;;;;1744583;81;21039;-71
2022/08/06 02:52:14;;;;;;;16.85;15.05;;;;;;;;;;1744673;81;21043;-71
2022/08/06 02:54:42;;;;;;;18.23;14.38;;;;;;;;;;1729180;81;21012;-71
2022/08/06 02:57:10;;;;;;;16.48;14.28;;;;;;;;;;1746243;81;21043;-71
2022/08/06 02:59:39;;;;;;;15.93;13.22;;;;;;;;;;1745548;82;21086;-72
2022/08/06 03:02:07;;;;;;;17.30;13.10;;;;;;;;;;1745994;81;21000;-72
2022/08/06 03:04:35;;;;;;;15.75;13.40;;;;;;;;;;1745022;81;21027;-71
2022/08/06 03:07:03;;;;;;;15.93;13.28;;;;;;;;;;1745934;81;21047;-72
2022/08/06 03:09:30;;;;;;;14.85;13.25;;;;;;;;;;1744924;81;21051;-72
2022/08/06 03:11:57;;;;;;;17.85;13.32;;;;;;;;;;1746156;80;21091;-71
2022/08/06 03:14:24;;;;;;;16.45;13.03;;;;;;;;;;1742699;81;21066;-71
2022/08/06 03:16:52;;;;;;;14.35;12.85;;;;;;;;;;1743371;81;21063;-72
2022/08/06 03:19:19;;;;;;;14.95;12.58;;;;;;;;;;1741885;82;21016;-72
2022/08/06 03:21:47;;;;;;;18.15;12.78;;;;;;;;;;1742447;81;21561;-71
2022/08/06 03:24:13;;;;;;;14.05;12.65;;;;;;;;;;1745939;81;21040;-72
2022/08/06 03:26:41;;;;;;;13.88;12.50;;;;;;;;;;1754562;82;21078;-72
2022/08/06 03:29:09;;;;;;;14.65;13.05;;;;;;;;;;1751584;80;21133;-71
2022/08/06 03:31:36;;;;;;;16.07;12.98;;;;;;;;;;1747096;81;21099;-72
2022/08/06 03:34:03;;;;;;;16.25;13.62;;;;;;;;;;1744670;81;21081;-72
2022/08/06 03:36:30;;;;;;;17.75;14.23;;;;;;;;;;1744817;81;21102;-71
2022/08/06 03:38:58;;;;;;;16.62;14.85;;;;;;;;;;1746542;80;20996;-72
2022/08/06 03:41:25;;;;;;;18.95;16.37;;;;;;;;;;1747325;81;21503;-71
2022/08/06 03:43:52;;;;;;;20.32;15.60;;;;;;;;;;1744013;81;21039;-71
2022/08/06 03:46:20;;;;;;;17.57;15.03;;;;;;;;;;1745791;82;21042;-72
2022/08/06 03:48:47;;;;;;;15.98;14.20;;;;;;;;;;1746301;81;21665;-72
2022/08/06 03:51:15;;;;;;;18.92;13.90;;;;;;;;;;1745761;81;21570;-71
2022/08/06 03:53:44;;;;;;;16.35;14.30;;;;;;;;;;1745369;82;20999;-72
2022/08/06 03:56:12;;;;;;;18.70;13.93;;;;;;;;;;1744810;81;21118;-72
2022/08/06 03:58:40;;;;;;;16.15;13.93;;;;;;;;;;1745847;81;21015;-72
2022/08/06 04:01:08;;;;;;;16.62;14.55;;;;;;;;;;1744108;81;21086;-72
2022/08/06 04:03:35;;;;;;;15.85;13.98;;;;;;;;;;1744924;81;20992;-72
2022/08/06 04:06:03;;;;;;;18.95;14.05;;;;;;;;;;1746994;80;21517;-72
2022/08/06 04:08:30;;;;;;;17.23;13.78;;;;;;;;;;1746502;81;21027;-72
2022/08/06 04:10:57;;;;;;;15.70;14.15;;;;;;;;;;1744995;81;21511;-71
2022/08/06 04:13:24;;;;;;;15.25;13.53;;;;;;;;;;1743798;81;21132;-72
2022/08/06 04:15:52;;;;;;;13.83;12.47;;;;;;;;;;1744256;81;20977;-72
2022/08/06 04:18:20;;;;;;;15.18;12.68;;;;;;;;;;1742119;82;21083;-72
2022/08/06 04:20:47;;;;;;;13.05;11.85;;;;;;;;;;1745351;82;21075;-72
2022/08/06 04:23:14;;;;;;;13.85;11.57;;;;;;;;;;1746269;81;21091;-72
2022/08/06 04:25:44;;;;;;;14.80;11.55;;;;;;;;;;1745026;82;23425;-71
2022/08/06 04:28:10;;;;;;;13.98;11.57;;;;;;;;;;1744945;82;21063;-72
2022/08/06 04:30:38;;;;;;;14.18;12.25;;;;;;;;;;1745200;81;21000;-73
2022/08/06 04:33:06;;;;;;;13.08;11.75;;;;;;;;;;1745171;81;21558;-72
2022/08/06 04:35:33;;;;;;;15.65;11.93;;;;;;;;;;1745638;81;21098;-72
2022/08/06 04:38:00;;;;;;;15.72;12.35;;;;;;;;;;1745276;82;21058;-72
2022/08/06 04:40:27;;;;;;;16.42;12.82;;;;;;;;;;1746773;82;21107;-72
2022/08/06 04:42:54;;;;;;;14.03;12.55;;;;;;;;;;1745077;81;21012;-72
2022/08/06 04:45:21;;;;;;;16.50;12.82;;;;;;;;;;1745935;81;21555;-72
2022/08/06 04:47:48;;;;;;;13.58;12.20;;;;;;;;;;1743719;82;21495;-72
2022/08/06 04:50:15;;;;;;;15.28;12.78;;;;;;;;;;1745635;81;21023;-72
2022/08/06 04:52:41;;;;;;;14.10;11.43;;;;;;;;;;1743573;81;21075;-72
2022/08/06 04:55:08;;;;;;;17.30;12.15;;;;;;;;;;1745257;81;21071;-72
2022/08/06 04:57:34;;;;;;;14.98;12.65;;;;;;;;;;1745889;81;21067;-72
2022/08/06 05:00:02;;;;;;;13.30;12.00;;;;;;;;;;1746211;82;21059;-72
2022/08/06 05:02:29;;;;;;;14.63;11.73;;;;;;;;;;1745326;82;20996;-71
2022/08/06 05:04:57;;;;;;;13.58;12.23;;;;;;;;;;1746154;81;21075;-72
2022/08/06 05:07:27;;;;;;;13.22;12.03;;;;;;;;;;1742746;81;21480;-72
2022/08/06 05:09:53;;;;;;;13.40;11.93;;;;;;;;;;1741739;82;21031;-72
2022/08/06 05:12:27;;;;;;;13.85;11.68;;;;;;;;;;1744611;81;21059;-72
2022/08/06 05:14:55;;;;;;;13.35;11.63;;;;;;;;;;1746079;81;21040;-71
2022/08/06 05:17:24;;;;;;;13.13;11.63;;;;;;;;;;1747081;81;21063;-72
2022/08/06 05:19:52;;;;;;;14.38;11.60;;;;;;;;;;1746415;81;21063;-72
2022/08/06 05:22:20;;;;;;;11.90;10.78;;;;;;;;;;1746788;81;21590;-71
2022/08/06 05:24:49;;;;;;;14.28;11.73;;;;;;;;;;1744553;81;21611;-71
2022/08/06 05:27:16;;;;;;;12.50;11.30;;;;;;;;;;1745127;81;21097;-72
2022/08/06 05:29:42;;;;;;;12.55;11.25;;;;;;;;;;1746370;82;21070;-72
2022/08/06 05:32:09;;;;;;;13.93;11.50;;;;;;;;;;1744727;80;21500;-72
2022/08/06 05:34:36;;;;;;;13.72;11.55;;;;;;;;;;1745428;81;21126;-72
2022/08/06 05:37:03;;;;;;;12.70;11.33;;;;;;;;;;1746052;82;21071;-72
2022/08/06 05:39:29;;;;;;;12.98;11.68;;;;;;;;;;1746768;81;21175;-72
2022/08/06 05:41:56;;;;;;;16.57;11.93;;;;;;;;;;1746602;81;21118;-72
2022/08/06 05:44:24;;;;;;;13.18;11.28;;;;;;;;;;1746211;82;21512;-72
2022/08/06 05:46:52;;;;;;;12.88;11.50;;;;;;;;;;1745212;80;21032;-72
2022/08/06 05:49:22;;;;;;;12.80;11.50;;;;;;;;;;1746342;81;21046;-72
2022/08/06 05:51:54;;;;;;;13.30;11.85;;;;;;;;;;1746537;82;21562;-72
2022/08/06 05:54:22;;;;;;;13.32;11.57;;;;;;;;;;1746017;81;21019;-72
2022/08/06 05:56:50;;;;;;;13.35;11.95;;;;;;;;;;1741435;81;21063;-72
2022/08/06 05:59:21;;;;;;;15.68;12.05;;;;;;;;;;1747229;81;21027;-72
2022/08/06 06:01:49;;;;;;;15.10;11.83;;;;;;;;;;1732209;81;21094;-72
2022/08/06 06:04:16;;;;;;;14.03;11.55;;;;;;;;;;1745054;81;21027;-72
2022/08/06 06:06:43;;;;;;;16.23;12.30;;;;;;;;;;1747500;81;20983;-72
2022/08/06 06:09:10;;;;;;;13.15;11.55;;;;;;;;;;1749058;81;21188;-72
2022/08/06 06:11:37;;;;;;;12.88;11.60;;;;;;;;;;1744453;81;21130;-72
2022/08/06 06:14:07;;;;;;;12.63;11.15;;;;;;;;;;1744751;82;21101;-72
2022/08/06 06:16:35;;;;;;;16.60;11.38;;;;;;;;;;1746238;82;21070;-72
2022/08/06 06:19:03;;;;;;;12.90;11.65;;;;;;;;;;1742843;81;21078;-72
2022/08/06 06:21:31;;;;;;;15.75;11.55;;;;;;;;;;1743634;81;21059;-72
2022/08/06 06:24:09;;;;;;;12.90;11.70;;;;;;;;;;1745733;81;21649;-72
2022/08/06 06:26:37;;;;;;;12.03;10.65;;;;;;;;;;1746608;81;21125;-72
2022/08/06 06:29:05;;;;;;;11.80;10.70;;;;;;;;;;1745633;81;21039;-73
2022/08/06 06:31:35;;;;;;;11.28;10.15;;;;;;;;;;1746338;81;21543;-72
2022/08/06 06:34:03;;;;;;;12.47;10.58;;;;;;;;;;1744153;82;21011;-72
2022/08/06 06:36:34;;;;;;;16.60;10.88;;;;;;;;;;1746077;82;21027;-72
2022/08/06 06:39:05;;;;;;;12.88;10.50;;;;;;;;;;1744594;81;21118;-72
2022/08/06 06:41:37;;;;;;;13.30;9.90;;;;;;;;;;1745915;82;21019;-70
2022/08/06 06:44:20;;;;;;;12.05;9.95;;;;;;;;;;1745320;81;21020;-71
2022/08/06 06:46:46;;;;;;;;;;;;;;;;;;1748795;81;21039;-71
2022/08/06 06:49:14;;;;;;;12.50;9.75;;;;;;;;;;1744127;81;20126;-71
2022/08/06 06:51:43;;;;;;;13.48;10.32;;;;;;;;;;1743667;81;21515;-71
2022/08/06 06:54:14;;;;;;;12.82;10.20;;;;;;;;;;1743899;81;21554;-71
2022/08/06 06:56:42;;;;;;;12.75;10.28;;;;;;;;;;1743146;81;21035;-71
2022/08/06 06:59:10;;;;;;;13.85;9.88;;;;;;;;;;1740208;82;21519;-71
2022/08/06 07:01:37;;;;;;;10.80;9.28;;;;;;;;;;1743710;81;21023;-70
2022/08/06 07:04:07;;;;;;;12.03;10.40;;;;;;;;;;1745451;81;21059;-71
2022/08/06 07:06:35;;;;;;;13.85;10.35;;;;;;;;;;1742007;81;21623;-71
2022/08/06 07:09:02;;;;;;;13.10;10.78;;;;;;;;;;1734064;82;21070;-71
2022/08/06 07:11:29;;;;;;;13.13;10.20;;;;;;;;;;1732807;82;21071;-71
2022/08/06 07:13:57;;;;;;;15.00;10.82;;;;;;;;;;1731283;82;21516;-71
2022/08/06 07:16:24;;;;;;;14.30;11.15;;;;;;;;;;1725874;82;21086;-71
2022/08/06 07:18:52;;;;;;;13.03;11.53;;;;;;;;;;1741304;82;21090;-71
2022/08/06 07:21:19;;;;;;;14.85;11.57;;;;;;;;;;1740489;82;21610;-71
2022/08/06 07:23:48;;;;;;;14.73;11.40;;;;;;;;;;1729732;82;21071;-70
2022/08/06 07:26:16;;;;;;;17.87;11.75;;;;;;;;;;1735132;82;21063;-71
2022/08/06 07:28:44;;;;;;;15.18;11.38;;;;;;;;;;1741031;81;21020;-70
2022/08/06 07:31:11;;;;;;;14.03;11.60;;;;;;;;;;1726834;82;21003;-72
2022/08/06 07:33:39;;;;;;;12.93;11.53;;;;;;;;;;1745720;82;21103;-71
2022/08/06 07:36:06;;;;;;;17.62;11.73;;;;;;;;;;1734331;80;21032;-71
2022/08/06 07:38:34;;;;;;;14.30;11.65;;;;;;;;;;1738183;82;21078;-71
2022/08/06 07:41:05;;;;;;;16.62;11.75;;;;;;;;;;1745276;82;21563;-72
2022/08/06 07:43:33;;;;;;;14.07;11.30;;;;;;;;;;1737532;82;21151;-71
2022/08/06 07:46:01;;;;;;;13.60;11.22;;;;;;;;;;1738250;82;21051;-71
2022/08/06 07:48:29;;;;;;;18.48;12.90;;;;;;;;;;1728188;82;21341;-71
2022/08/06 07:50:57;;;;;;;14.00;11.97;;;;;;;;;;1724842;82;21063;-71
2022/08/06 07:53:24;;;;;;;18.77;12.80;;;;;;;;;;1733835;81;21024;-72
2022/08/06 07:55:50;;;;;;;14.38;12.70;;;;;;;;;;1737220;82;21212;-71
2022/08/06 07:58:18;;;;;;;14.90;12.37;;;;;;;;;;1723656;82;21063;-71
2022/08/06 08:00:44;;;;;;;18.27;12.73;;;;;;;;;;1721266;82;21036;-72
2022/08/06 08:08:42;;;;;;;13.80;12.40;;;;;;;;;;1741046;82;21095;-71
2022/08/06 08:11:09;;;;;;;16.05;12.60;;;;;;;;;;1735922;81;21090;-71
2022/08/06 08:13:36;;;;;;;15.95;13.08;;;;;;;;;;1728546;82;21063;-71
2022/08/06 08:16:03;;;;;;;14.90;12.88;;;;;;;;;;1723810;82;21051;-71
2022/08/06 08:18:31;;;;;;;13.95;12.25;;;;;;;;;;1730616;82;21090;-71
2022/08/06 08:20:58;;;;;;;14.40;12.98;;;;;;;;;;1720425;82;21144;-70
2022/08/06 08:23:26;;;;;;;13.95;12.53;;;;;;;;;;1731980;81;21099;-70
2022/08/06 08:25:55;;;;;;;17.73;13.60;;;;;;;;;;1720746;82;21082;-70
2022/08/06 08:28:23;;;;;;;14.47;12.93;;;;;;;;;;1733119;82;21032;-70
2022/08/06 08:30:50;;;;;;;14.98;12.55;;;;;;;;;;1725805;81;21089;-70
2022/08/06 08:33:17;;;;;;;16.07;13.28;;;;;;;;;;1718711;82;21019;-70
2022/08/06 08:35:44;;;;;;;17.75;12.00;;;;;;;;;;1728505;82;21051;-70
2022/08/06 08:38:11;;;;;;;16.07;12.80;;;;;;;;;;1726045;82;21071;-70
2022/08/06 08:40:38;;;;;;;15.15;12.45;;;;;;;;;;1728601;82;21063;-70
2022/08/06 08:43:05;;;;;;;15.10;12.55;;;;;;;;;;1742151;82;21496;-71
2022/08/06 08:45:32;;;;;;;14.45;12.70;;;;;;;;;;1733197;81;21035;-70
2022/08/06 08:48:01;;;;;;;15.45;12.95;;;;;;;;;;1724345;82;21656;-71
2022/08/06 08:50:28;;;;;;;14.90;13.05;;;;;;;;;;1737507;82;21020;-71
2022/08/06 08:52:56;;;;;;;14.85;12.70;;;;;;;;;;1741276;82;21016;-71
2022/08/06 08:55:24;;;;;;;13.83;12.43;;;;;;;;;;1731897;82;21036;-71
2022/08/06 08:57:52;;;;;;;14.45;12.88;;;;;;;;;;1723020;82;21083;-71
2022/08/06 09:00:19;;;;;;;15.03;13.13;;;;;;;;;;1724508;82;21008;-71
2022/08/06 09:02:45;;;;;;;17.15;13.55;;;;;;;;;;1711431;82;21063;-71
2022/08/06 09:05:12;;;;;;;15.45;13.75;;;;;;;;;;1721499;81;21019;-71
2022/08/06 09:07:40;;;;;;;14.00;12.60;;;;;;;;;;1733248;81;21070;-70
2022/08/06 09:10:07;;;;;;;13.83;12.23;;;;;;;;;;1724245;82;21032;-71
2022/08/06 09:12:34;;;;;;;13.88;12.45;;;;;;;;;;1731999;82;21091;-71
2022/08/06 09:15:01;;;;;;;13.55;12.18;;;;;;;;;;1744875;82;21068;-71
2022/08/06 09:17:31;;;;;;;18.10;13.13;;;;;;;;;;1730570;82;21634;-71
2022/08/06 09:19:57;;;;;;;17.55;12.78;;;;;;;;;;1725507;82;21548;-71
2022/08/06 09:22:24;;;;;;;14.83;12.30;;;;;;;;;;1734244;82;21048;-71
2022/08/06 09:24:50;;;;;;;18.52;11.35;;;;;;;;;;1712674;84;20996;-71
2022/08/06 09:27:18;;;;;;;15.75;12.37;;;;;;;;;;1715195;82;21054;-71
2022/08/06 09:29:50;;;;;;;13.75;11.97;;;;;;;;;;1715625;83;21582;-71
2022/08/06 09:32:35;;;;;;;14.05;11.97;;;;;;;;;;1714448;82;21589;-71
2022/08/06 09:35:01;;;;;;;15.43;11.97;;;;;;;;;;1716653;83;21077;-71
2022/08/06 09:37:28;;;;;;;12.13;10.68;;;;;;;;;;1714609;82;21165;-70
2022/08/06 09:39:55;;;;;;;17.80;11.95;;;;;;;;;;1714073;82;21532;-71
2022/08/06 09:42:38;;;;;;;15.23;11.60;;;;;;;;;;1715658;82;21094;-71
2022/08/06 09:45:06;;;;;;;15.55;13.13;;;;;;;;;;1713859;82;21044;-70
2022/08/06 09:47:35;;;;;;;12.28;10.80;;;;;;;;;;1716776;82;21035;-71
2022/08/06 09:50:03;;;;;;;12.98;10.72;;;;;;;;;;1713203;82;21106;-70
2022/08/06 09:52:30;;;;;;;13.90;11.45;;;;;;;;;;1713407;82;21015;-71
2022/08/06 09:54:57;;;;;;;14.80;10.88;;;;;;;;;;1713601;83;21071;-71
2022/08/06 09:57:24;;;;;;;12.58;10.98;;;;;;;;;;1717276;83;21011;-70
2022/08/06 09:59:51;;;;;;;13.25;10.98;;;;;;;;;;1714740;82;21132;-72
2022/08/06 10:02:18;;;;;;;13.05;11.70;;;;;;;;;;1707954;82;21578;-70
2022/08/06 10:04:45;;;;;;;13.22;11.03;;;;;;;;;;1714944;82;21074;-71
2022/08/06 10:07:12;;;;;;;12.68;11.25;;;;;;;;;;1717093;82;21083;-70
2022/08/06 10:09:53;;;;;;;12.33;11.03;;;;;;;;;;1713436;82;21114;-71
2022/08/06 10:12:20;;;;;;;10.40;9.23;;;;;;;;;;1714342;82;21174;-70
2022/08/06 10:14:46;;;;;;;15.25;9.60;;;;;;;;;;1715131;82;21075;-71
2022/08/06 10:17:18;;;;;;;10.32;9.23;;;;;;;;;;1717778;82;21558;-71
2022/08/06 10:19:45;;;;;;;10.82;9.28;;;;;;;;;;1708228;82;20992;-70
2022/08/06 10:22:13;;;;;;;11.83;9.55;;;;;;;;;;1682227;83;21150;-70
2022/08/06 10:24:41;;;;;;;11.35;9.08;;;;;;;;;;1711840;82;21003;-70
2022/08/06 10:27:08;;;;;;;9.78;8.10;;;;;;;;;;1712380;84;21034;-71
2022/08/06 10:29:37;;;;;;;9.20;7.37;;;;;;;;;;1712395;83;21668;-70
2022/08/06 10:32:05;;;;;;;12.43;7.53;;;;;;;;;;1679798;85;21052;-71
2022/08/06 10:34:33;;;;;;;11.22;8.48;;;;;;;;;;1654588;86;21096;-71
2022/08/06 10:37:02;;;;;;;10.43;7.90;;;;;;;;;;1680284;84;21584;-71
2022/08/06 10:39:31;;;;;;;11.43;8.58;;;;;;;;;;1677882;85;21068;-71
2022/08/06 10:41:58;;;;;;;11.88;9.18;;;;;;;;;;1677855;85;21060;-71
2022/08/06 10:44:25;;;;;;;13.53;8.78;;;;;;;;;;1648964;86;21119;-71
2022/08/06 10:46:52;;;;;;;10.72;8.68;;;;;;;;;;1651329;86;21195;-71
2022/08/06 10:49:19;;;;;;;10.28;9.15;;;;;;;;;;1655849;85;21096;-71
2022/08/06 10:51:48;;;;;;;12.23;9.28;;;;;;;;;;1714301;82;21520;-71
2022/08/06 10:54:15;;;;;;;13.78;8.93;;;;;;;;;;1710921;83;21050;-70
2022/08/06 10:56:41;;;;;;;10.38;8.58;;;;;;;;;;1682751;83;21115;-71
2022/08/06 10:59:08;;;;;;;9.60;8.60;;;;;;;;;;1713435;82;21574;-71
2022/08/06 11:01:37;;;;;;;11.73;8.95;;;;;;;;;;1680436;83;21141;-70
2022/08/06 11:04:08;;;;;;;9.70;8.75;;;;;;;;;;1712974;82;21134;-70
2022/08/06 11:06:38;;;;;;;9.88;8.30;;;;;;;;;;1710503;83;21084;-71
2022/08/06 11:09:21;;;;;;;11.30;8.50;;;;;;;;;;1680622;83;21052;-70
2022/08/06 11:12:06;;;;;;;8.73;7.83;;;;;;;;;;1712936;82;21031;-70
2022/08/06 11:14:35;;;;;;;11.25;8.30;;;;;;;;;;1711812;82;21043;-71
2022/08/06 11:17:02;;;;;;;11.03;8.45;;;;;;;;;;1710962;83;21515;-71
2022/08/06 11:19:39;;;;;;;13.88;7.80;;;;;;;;;;1678370;83;21158;-70
2022/08/06 11:22:06;;;;;;;11.33;8.80;;;;;;;;;;1713164;82;21087;-71
2022/08/06 11:24:33;;;;;;;9.60;8.45;;;;;;;;;;1683096;84;21041;-71
2022/08/06 11:27:00;;;;;;;9.38;8.33;;;;;;;;;;1654597;85;21080;-71
2022/08/06 11:29:26;;;;;;;10.00;8.85;;;;;;;;;;1682227;84;21024;-70
2022/08/06 11:31:54;;;;;;;10.30;8.38;;;;;;;;;;1680860;84;21087;-70
2022/08/06 11:34:21;;;;;;;9.25;7.72;;;;;;;;;;1682047;83;21055;-70
2022/08/06 11:36:48;;;;;;;10.80;7.83;;;;;;;;;;1654955;86;21053;-71
2022/08/06 11:39:15;;;;;;;8.90;8.00;;;;;;;;;;1710607;83;21098;-70
2022/08/06 11:41:47;;;;;;;8.73;7.83;;;;;;;;;;1712524;83;21079;-70
2022/08/06 11:44:19;;;;;;;9.35;7.90;;;;;;;;;;1712174;82;21043;-70
2022/08/06 11:46:45;;;;;;;9.23;7.62;;;;;;;;;;1708333;82;21035;-70
2022/08/06 11:49:15;;;;;;;10.43;7.55;;;;;;;;;;1711481;84;22344;-71
2022/08/06 11:51:49;;;;;;;11.05;7.80;;;;;;;;;;1678304;85;21045;-70
2022/08/06 11:54:32;;;;;;;9.88;7.67;;;;;;;;;;1711081;82;21049;-70
2022/08/06 11:57:00;;;;;;;8.73;7.35;;;;;;;;;;1711828;82;21012;-70
2022/08/06 11:59:29;;;;;;;9.75;8.18;;;;;;;;;;1711932;82;21004;-71
2022/08/06 12:01:56;;;;;;;8.58;6.83;;;;;;;;;;1713669;82;21051;-71
2022/08/06 12:04:40;;;;;;;11.48;7.03;;;;;;;;;;1681510;85;21072;-70
2022/08/06 12:07:24;;;;;;;8.53;7.17;;;;;;;;;;1712252;82;21016;-71
2022/08/06 12:10:07;;;;;;;13.30;7.67;;;;;;;;;;1711544;82;21094;-70
2022/08/06 12:12:42;;;;;;;10.82;7.28;;;;;;;;;;1712480;82;21024;-70
2022/08/06 12:15:06;;;;;;;9.38;7.33;;;;;;;;;;1710165;82;21062;-70
2022/08/06 12:17:33;;;;;;;9.25;7.28;;;;;;;;;;1709761;83;21000;-70
2022/08/06 12:20:00;;;;;;;8.85;6.92;;;;;;;;;;1706512;82;20995;-70
2022/08/06 12:22:29;;;;;;;8.03;6.70;;;;;;;;;;1711251;82;21079;-71
2022/08/06 12:24:57;;;;;;;8.23;7.22;;;;;;;;;;1716306;82;21562;-71
2022/08/06 12:27:25;;;;;;;10.32;6.78;;;;;;;;;;1682330;84;21305;-71
2022/08/06 12:30:01;;;;;;;7.05;6.30;;;;;;;;;;1650808;86;21065;-71
2022/08/06 12:32:26;;;;;;;11.03;6.92;;;;;;;;;;1653041;85;21552;-70
2022/08/06 12:34:53;;;;;;;7.42;6.62;;;;;;;;;;1711860;82;21475;-71
2022/08/06 12:37:20;;;;;;;8.70;6.20;;;;;;;;;;1712005;83;21035;-70
2022/08/06 12:42:32;;;;;;;10.43;6.92;;;;;;;;;;1711549;82;21042;-70
2022/08/06 12:44:59;;;;;;;7.58;6.83;;;;;;;;;;1710795;82;21079;-70
2022/08/06 12:47:26;;;;;;;13.38;6.83;;;;;;;;;;1679485;84;21080;-70
2022/08/06 12:49:54;;;;;;;9.68;6.92;;;;;;;;;;1710333;82;21507;-71
2022/08/06 12:52:21;;;;;;;8.05;6.90;;;;;;;;;;1712064;82;21044;-71
2022/08/06 12:54:49;;;;;;;7.25;6.55;;;;;;;;;;1712351;84;21047;-71
2022/08/06 12:57:25;;;;;;;11.57;6.85;;;;;;;;;;1712322;83;21071;-71
2022/08/06 12:59:53;;;;;;;9.95;6.47;;;;;;;;;;1681042;84;21185;-71
2022/08/06 13:02:22;;;;;;;7.20;6.47;;;;;;;;;;1712335;82;21488;-71
2022/08/06 13:04:50;;;;;;;8.28;6.33;;;;;;;;;;1712468;84;21008;-71
2022/08/06 13:07:17;;;;;;;10.10;5.90;;;;;;;;;;1711508;83;21070;-71
2022/08/06 13:09:46;;;;;;;6.97;6.28;;;;;;;;;;1708324;83;21051;-71
2022/08/06 13:12:17;;;;;;;7.17;6.47;;;;;;;;;;1711028;82;21023;-71
2022/08/06 13:14:56;;;;;;;10.45;5.80;;;;;;;;;;1712580;84;21499;-71
2022/08/06 13:17:23;;;;;;;8.75;6.40;;;;;;;;;;1678981;83;21500;-71
2022/08/06 13:19:53;;;;;;;6.95;6.28;;;;;;;;;;1650898;86;21068;-71
2022/08/06 13:22:21;;;;;;;7.20;6.50;;;;;;;;;;1650599;85;21096;-72
2022/08/06 13:24:48;;;;;;;6.67;5.97;;;;;;;;;;1709306;82;21527;-72
2022/08/06 13:27:15;;;;;;;7.03;5.85;;;;;;;;;;1712354;82;21080;-71
2022/08/06 13:29:59;;;;;;;7.85;5.47;;;;;;;;;;1680338;83;21021;-71
2022/08/06 13:32:26;;;;;;;8.93;5.90;;;;;;;;;;1715848;82;21043;-71
2022/08/06 13:34:57;;;;;;;7.87;5.33;;;;;;;;;;1710602;82;21571;-71
2022/08/06 13:37:43;;;;;;;6.97;5.62;;;;;;;;;;1680575;85;21088;-71
2022/08/06 13:40:09;;;;;;;7.67;5.15;;;;;;;;;;1652939;85;21076;-71
2022/08/06 13:42:50;;;;;;;6.00;5.12;;;;;;;;;;1682257;83;21032;-71
2022/08/06 13:45:20;;;;;;;7.72;5.30;;;;;;;;;;1680943;84;21048;-71
2022/08/06 13:47:52;;;;;;;6.75;5.60;;;;;;;;;;1680532;85;21138;-72
2022/08/06 13:50:16;;;;;;;7.78;5.22;;;;;;;;;;1653237;86;21181;-71
2022/08/06 13:52:43;;;;;;;6.87;5.28;;;;;;;;;;1651542;85;21045;-71
2022/08/06 13:55:09;;;;;;;5.92;5.33;;;;;;;;;;1653664;85;21099;-71
2022/08/06 13:57:37;;;;;;;7.10;5.65;;;;;;;;;;1653123;85;21060;-71
2022/08/06 14:00:06;;;;;;;11.12;6.95;;;;;;;;;;1649241;86;21091;-71
2022/08/06 14:02:35;;;;;;;9.95;7.20;;;;;;;;;;1678296;84;21512;-71
2022/08/06 14:05:03;;;;;;;10.45;7.25;;;;;;;;;;1711892;82;21028;-71
2022/08/06 14:07:30;;;;;;;8.08;7.17;;;;;;;;;;1678392;85;21088;-71
2022/08/06 14:09:58;;;;;;;7.47;6.80;;;;;;;;;;1660645;86;21071;-71
2022/08/06 14:12:24;;;;;;;8.00;7.05;;;;;;;;;;1680524;84;21076;-71
2022/08/06 14:14:51;;;;;;;7.12;6.37;;;;;;;;;;1650942;87;21053;-71
2022/08/06 14:17:17;;;;;;;7.75;6.30;;;;;;;;;;1649446;85;21056;-71
2022/08/06 14:19:44;;;;;;;7.33;6.62;;;;;;;;;;1658078;85;21048;-71
2022/08/06 14:22:10;;;;;;;7.12;6.40;;;;;;;;;;1711648;82;21074;-71
2022/08/06 14:24:37;;;;;;;7.92;6.62;;;;;;;;;;1678563;83;21052;-71
2022/08/06 14:27:04;;;;;;;9.23;6.33;;;;;;;;;;1712018;82;20992;-71
2022/08/06 14:29:30;;;;;;;7.20;6.50;;;;;;;;;;1693123;83;21043;-71
2022/08/06 14:31:57;;;;;;;7.00;6.28;;;;;;;;;;1707324;82;21074;-71
2022/08/06 14:34:23;;;;;;;7.65;5.62;;;;;;;;;;1681165;84;21449;-71
2022/08/06 14:36:50;;;;;;;6.62;5.70;;;;;;;;;;1655409;85;21096;-71
2022/08/06 14:39:16;;;;;;;6.30;5.65;;;;;;;;;;1649041;86;21139;-71